Time;durP1;ratioP1;P1;durP2;ratioP2;P2;SDS_P1;SDS_P2;PMS_P1;PMS_P2;Temp;Humidity;BMP_temperature;BMP_pressure;BME280_temperature;BME280_humidity;BME280_pressure;Samples;Min_cycle;Max_cycle;Signal;HPM_P1;HPM_P2
2023/01/21 00:03:34;;;;;;;;;;;;;;;;;;;;;
2023/01/21 00:09:29;;;;;;;10.60;6.50;;;;;;;3.31;70.69;98636.38;234985;1192;139511;-65
2023/01/21 00:15:44;;;;;;;11.10;6.60;;;;;;;3.40;70.89;98639.36;234753;1194;139579;-66
2023/01/21 00:21:43;;;;;;;;;;;;;;;;;;;;;
2023/01/21 00:27:58;;;;;;;;;;;;;;;;;;;;;
2023/01/21 00:34:11;;;;;;;7.80;5.50;;;;;;;3.53;70.42;98638.50;234775;1195;138641;-65
2023/01/21 00:40:06;;;;;;;;;;;;;;;;;;;;;
2023/01/21 00:45:21;;;;;;;6.90;4.90;;;;;;;3.52;70.44;98634.69;234729;1196;138833;-65
2023/01/21 00:51:16;;;;;;;;;;;;;;;3.49;70.64;98635.33;234800;1195;138528;-65
2023/01/21 00:56:42;;;;;;;;;;;;;;;;;;;;;
2023/01/21 01:02:10;;;;;;;6.00;3.80;;;;;;;3.43;70.40;98651.19;235257;1193;124782;-65
2023/01/21 01:08:27;;;;;;;;;;;;;;;;;;;;;
2023/01/21 01:14:35;;;;;;;5.50;4.10;;;;;;;3.34;70.74;98663.95;234949;1193;139337;-66
2023/01/21 01:20:59;;;;;;;5.40;3.90;;;;;;;3.41;70.76;98653.00;234872;1193;139307;-65
2023/01/21 01:27:12;;;;;;;4.80;4.00;;;;;;;3.51;70.62;98643.30;234884;1194;139797;-66
2023/01/21 01:33:10;;;;;;;5.40;4.00;;;;;;;3.53;70.51;98641.10;235025;1193;138656;-65
2023/01/21 01:39:23;;;;;;;;;;;;;;;;;;;;;
2023/01/21 01:45:18;;;;;;;;;;;;;;;3.59;70.23;98629.13;235146;1192;138558;-66
2023/01/21 01:51:26;;;;;;;;;;;;;;;;;;;;;
2023/01/21 01:57:39;;;;;;;6.10;4.30;;;;;;;3.41;70.28;98604.95;234597;1195;138787;-65
2023/01/21 02:04:00;;;;;;;5.10;4.10;;;;;;;3.37;70.19;98598.29;234861;1193;139048;-64
2023/01/21 02:09:55;;;;;;;4.50;3.70;;;;;;;3.32;70.20;98597.44;234677;1193;139217;-65
2023/01/21 02:16:16;;;;;;;5.10;3.30;;;;;;;3.31;70.19;98606.60;235054;1193;139399;-64
2023/01/21 02:22:08;;;;;;;;;;;;;;;;;;;;;
2023/01/21 02:28:37;;;;;;;3.80;3.00;;;;;;;3.44;69.97;98617.98;234982;1193;138878;-64
2023/01/21 02:35:40;;;;;;;;;;;;;;;;;;;;;
2023/01/21 02:41:34;;;;;;;4.70;3.30;;;;;;;3.34;70.17;98608.41;234742;1193;138861;-65
2023/01/21 02:48:04;;;;;;;4.30;3.10;;;;;;;3.29;70.07;98605.62;234845;1194;139528;-65
2023/01/21 02:54:41;;;;;;;;;;;;;;;3.26;70.27;98604.34;234837;1194;139723;-64
2023/01/21 03:06:27;;;;;;;;;;;;;;;;;;;;;
2023/01/21 03:13:04;;;;;;;3.20;2.40;;;;;;;3.13;70.42;98587.33;235335;1192;139303;-64
2023/01/21 03:39:33;;;;;;;3.90;2.50;;;;;;;3.25;69.80;98593.00;234642;1195;138235;-69
2023/01/21 03:45:51;;;;;;;3.70;2.50;;;;;;;3.32;69.85;98595.17;234744;1197;138772;-68
2023/01/21 03:51:36;;;;;;;3.30;2.40;;;;;;;3.33;69.54;98595.12;234813;1195;139461;-66
2023/01/21 03:57:40;;;;;;;2.80;2.10;;;;;;;3.30;69.98;98596.64;234811;1195;138916;-68
2023/01/21 04:04:05;;;;;;;2.90;2.20;;;;;;;3.29;69.93;98595.27;234856;1195;138968;-67
2023/01/21 04:10:28;;;;;;;3.20;2.40;;;;;;;3.26;69.68;98595.21;234609;1195;139395;-66
2023/01/21 04:16:35;;;;;;;3.60;2.30;;;;;;;3.25;69.71;98594.91;234737;1194;139570;-67
2023/01/21 04:22:19;;;;;;;2.00;1.70;;;;;;;3.27;69.73;98589.72;234587;1195;138711;-64
2023/01/21 04:28:40;;;;;;;;;;;;;;;;;;;;;
2023/01/21 04:34:51;;;;;;;;;;;;;;;;;;;;;
2023/01/21 04:40:46;;;;;;;2.50;2.10;;;;;;;3.62;69.27;98570.79;234955;1193;140039;-64
2023/01/21 04:47:12;;;;;;;5.60;3.60;;;;;;;3.61;69.11;98571.38;234925;1192;138871;-64
2023/01/21 05:06:58;;;;;;;;;;;;;;;;;;;;;
2023/01/21 05:12:55;;;;;;;;;;;;;;;;;;;;;
2023/01/21 05:19:13;;;;;;;;;;;;;;;;;;;;;
2023/01/21 05:25:35;;;;;;;2.50;1.90;;;;;;;3.60;68.80;98583.87;234751;1195;138855;-63
2023/01/21 05:38:57;;;;;;;2.70;2.20;;;;;;;3.40;69.07;98585.02;234110;1201;138470;-65
2023/01/21 07:06:16;;;;;;;;;;;;;;;;;;;;;
2023/01/21 07:11:40;;;;;;;3.00;2.20;;;;;;;3.35;69.86;98656.59;234364;1199;138287;-65
2023/01/21 07:18:06;;;;;;;5.10;2.60;;;;;;;3.38;69.85;98667.34;234358;1199;138140;-65
2023/01/21 07:24:20;;;;;;;2.70;2.30;;;;;;;3.42;69.89;98669.45;234278;1199;139126;-65
2023/01/21 07:30:45;;;;;;;2.80;2.00;;;;;;;3.52;69.71;98674.65;234731;1196;142179;-66
2023/01/21 07:37:09;;;;;;;3.70;2.20;;;;;;;3.67;69.42;98672.84;234616;1196;139366;-67
2023/01/21 07:42:55;;;;;;;2.80;2.20;;;;;;;3.78;69.21;98683.11;234724;1195;138783;-66
2023/01/21 07:48:52;;;;;;;5.50;3.10;;;;;;;3.84;68.95;98686.55;234651;1195;139038;-66
2023/01/21 07:54:56;;;;;;;5.00;1.70;;;;;;;3.84;68.55;98693.58;234647;1196;138481;-66
2023/01/21 08:01:30;;;;;;;1.90;1.50;;;;;;;3.80;68.60;98697.59;234603;1195;138230;-64
2023/01/21 08:07:43;;;;;;;3.30;2.00;;;;;;;3.77;68.28;98705.77;234434;1196;138957;-65
2023/01/21 08:14:12;;;;;;;3.10;2.00;;;;;;;3.78;68.40;98714.85;234513;1196;138315;-66
2023/01/21 08:20:22;;;;;;;3.40;2.10;;;;;;;3.75;68.52;98721.46;234544;1196;140704;-67
2023/01/21 08:26:49;;;;;;;3.20;2.40;;;;;;;3.71;68.53;98725.14;234633;1196;138646;-66
2023/01/21 08:53:07;;;;;;;3.50;2.80;;;;;;;3.90;68.55;98743.15;234561;1196;138381;-65
2023/01/21 08:59:05;;;;;;;;;;;;;;;;;;;;;
2023/01/21 09:05:52;;;;;;;10.70;4.30;;;;;;;4.04;68.52;98763.31;234477;1195;138085;-65
2023/01/21 09:11:47;;;;;;;4.80;2.80;;;;;;;4.04;68.02;98778.92;234375;1196;138796;-64
2023/01/21 09:17:44;;;;;;;3.40;2.50;;;;;;;3.97;68.07;98773.23;234724;1196;139807;-64
2023/01/21 09:23:59;;;;;;;3.60;2.90;;;;;;;3.99;68.36;98774.90;234785;1194;138642;-66
2023/01/21 09:30:47;;;;;;;3.90;2.80;;;;;;;3.98;68.57;98782.66;234966;1193;138597;-67
2023/01/21 09:36:06;;;;;;;2.90;2.60;;;;;;;3.98;68.54;98789.69;234871;1194;138424;-67
2023/01/21 09:42:34;;;;;;;4.00;2.60;;;;;;;3.96;68.75;98792.09;234902;1193;139071;-67
2023/01/21 09:48:41;;;;;;;3.70;2.80;;;;;;;4.04;68.72;98792.83;234986;1193;139455;-67
2023/01/21 09:54:40;;;;;;;5.70;2.80;;;;;;;4.12;68.74;98793.54;234763;1193;139869;-69
2023/01/21 10:04:28;;;;;;;5.60;3.20;;;;;;;4.24;68.43;98800.95;232448;1211;635376;-67
2023/01/21 10:10:36;;;;;;;;;;;;;;;4.25;68.16;98814.60;234347;1199;138142;-67
2023/01/21 10:17:12;;;;;;;4.50;2.80;;;;;;;4.21;68.44;98813.88;234378;1198;125178;-67
2023/01/21 10:24:02;;;;;;;71.20;41.40;;;;;;;4.19;68.43;98808.01;235281;1192;138343;-68
2023/01/21 10:29:31;;;;;;;6.00;4.30;;;;;;;4.35;68.58;98807.89;234961;1192;139065;-66
2023/01/21 10:35:56;;;;;;;4.80;3.20;;;;;;;4.36;67.91;98806.63;235295;1193;138641;-66
2023/01/21 10:42:06;;;;;;;4.80;3.50;;;;;;;4.34;67.53;98802.11;235131;1193;138929;-66
2023/01/21 10:48:32;;;;;;;6.90;3.70;;;;;;;4.38;67.78;98802.48;235360;1192;139198;-65
2023/01/21 10:54:54;;;;;;;6.60;4.10;;;;;;;4.35;67.68;98801.56;235188;1193;138495;-66
2023/01/21 11:01:08;;;;;;;6.80;4.20;;;;;;;4.31;68.00;98802.61;235044;1192;138784;-66
2023/01/21 11:08:05;;;;;;;8.10;4.20;;;;;;;4.41;67.76;98806.06;235116;1192;139217;-67
2023/01/21 11:13:50;;;;;;;;;;;;;;;;;;;;;
2023/01/21 11:20:06;;;;;;;6.20;4.70;;;;;;;4.61;67.16;98811.73;235079;1192;139108;-66
2023/01/21 11:26:41;;;;;;;131.70;74.00;;;;;;;4.64;66.91;98816.55;234929;1192;139298;-65
2023/01/21 11:33:06;;;;;;;9.30;5.90;;;;;;;4.72;66.78;98819.38;235205;1192;139826;-66
2023/01/21 11:39:14;;;;;;;8.60;5.60;;;;;;;4.78;66.54;98815.08;235429;1196;138560;-66
2023/01/21 11:45:29;;;;;;;;;;;;;;;;;;;;;
2023/01/21 11:52:25;;;;;;;10.20;5.60;;;;;;;4.92;65.59;98808.86;235315;1194;139286;-65
2023/01/21 11:58:19;;;;;;;10.50;6.50;;;;;;;4.84;65.50;98819.21;235315;1196;138597;-65
2023/01/21 13:06:38;;;;;;;13.80;9.70;;;;;;;4.63;66.58;98893.00;231517;1212;635866;-66
2023/01/21 13:12:30;;;;;;;;;;;;;;;;;;;;;
2023/01/21 13:18:59;;;;;;;12.80;10.20;;;;;;;4.69;66.65;98919.66;235231;1193;138561;-64
2023/01/21 13:25:03;;;;;;;;;;;;;;;;;;;;;
2023/01/21 13:31:29;;;;;;;12.10;10.20;;;;;;;4.57;66.30;98930.88;235461;1195;139332;-65
2023/01/21 13:37:22;;;;;;;17.20;10.90;;;;;;;4.53;66.48;98947.36;235382;1192;138975;-68
2023/01/21 14:47:45;;;;;;;17.60;13.00;;;;;;;4.09;67.15;99040.14;235702;1198;107470;-65
2023/01/21 14:54:08;;;;;;;24.00;16.70;;;;;;;4.07;68.03;99049.88;235075;1199;138295;-64
2023/01/21 14:59:44;;;;;;;19.10;13.90;;;;;;;4.06;67.47;99061.32;234904;1193;237013;-64
2023/01/21 15:05:41;;;;;;;;;;;;;;;;;;;;;
2023/01/21 15:12:51;;;;;;;93.20;55.30;;;;;;;4.11;67.51;99093.98;234285;1199;139629;-66
2023/01/21 15:20:40;;;;;;;19.80;14.20;;;;;;;4.43;67.65;99105.46;234802;1196;138789;-64
2023/01/21 15:27:25;;;;;;;;;;;;;;;;;;;;;
2023/01/21 15:34:20;;;;;;;18.50;13.50;;;;;;;4.21;66.73;99127.85;233901;1196;138450;-65
2023/01/21 15:41:03;;;;;;;;;;;;;;;;;;;;;
2023/01/21 15:46:56;;;;;;;;;;;;;;;;;;;;;
2023/01/21 16:00:52;;;;;;;;;;;;;;;;;;;;;
2023/01/21 16:13:48;;;;;;;;;;;;;;;;;;;;;
2023/01/21 16:19:44;;;;;;;26.40;15.10;;;;;;;3.87;67.61;99189.39;234649;1196;139527;-65
2023/01/21 16:45:49;;;;;;;22.50;15.30;;;;;;;3.87;67.59;99209.02;234502;1196;139585;-66
2023/01/21 16:51:12;;;;;;;21.00;15.60;;;;;;;3.83;68.00;99213.71;234761;1196;139519;-65
2023/01/21 16:58:38;;;;;;;21.90;15.10;;;;;;;3.78;68.31;99222.81;234912;1196;139408;-65
2023/01/21 17:05:41;;;;;;;22.10;15.70;;;;;;;3.73;68.68;99222.80;234648;1196;139202;-66
2023/01/21 18:28:53;;;;;;;94.70;63.70;;;;;;;3.85;69.01;99327.21;236585;1190;651015;-67
2023/01/21 18:35:20;;;;;;;36.60;23.10;;;;;;;4.12;69.35;99331.30;239507;1180;139702;-68
2023/01/21 18:41:34;;;;;;;32.00;22.00;;;;;;;4.11;68.51;99346.95;239501;1180;138875;-67
2023/01/21 18:47:50;;;;;;;;;;;;;;;;;;;;;
2023/01/21 18:53:50;;;;;;;36.80;25.40;;;;;;;4.02;68.83;99363.18;239560;1184;139175;-65
2023/01/21 18:59:19;;;;;;;36.80;25.50;;;;;;;4.03;68.66;99375.65;239603;1180;138617;-66
2023/01/21 19:04:46;;;;;;;36.20;25.40;;;;;;;3.95;68.67;99381.49;239568;1180;138599;-65
2023/01/21 19:11:15;;;;;;;42.40;26.60;;;;;;;3.86;68.93;99381.95;240032;1180;138735;-65
2023/01/21 19:17:02;;;;;;;38.50;25.60;;;;;;;3.77;69.20;99392.73;239881;1180;139850;-65
2023/01/21 19:22:45;;;;;;;;;;;;;;;;;;;;;
2023/01/21 19:28:52;;;;;;;41.70;25.60;;;;;;;3.70;69.59;99407.84;240024;1180;138715;-65
2023/01/21 19:34:41;;;;;;;;;;;;;;;;;;;;;
2023/01/21 19:40:53;;;;;;;174.20;107.90;;;;;;;3.73;69.36;99421.80;240195;1177;139231;-67
2023/01/21 19:46:29;;;;;;;;;;;;;;;;;;;;;
2023/01/21 19:52:37;;;;;;;34.70;22.90;;;;;;;5.34;68.33;99432.23;240253;1177;139103;-64
2023/01/21 20:02:00;;;;;;;40.10;25.80;;;;;;;4.67;67.13;99444.27;232386;1212;635862;-63
2023/01/21 20:08:25;;;;;;;;;;;;;;;;;;;;;
2023/01/21 20:14:09;;;;;;;;;;;;;;;;;;;;;
2023/01/21 20:20:32;;;;;;;47.70;30.00;;;;;;;4.17;67.81;99463.90;234845;1196;138897;-63
2023/01/21 20:26:43;;;;;;;46.70;30.50;;;;;;;4.04;67.82;99473.58;234827;1196;139207;-63
2023/01/21 20:32:26;;;;;;;46.00;30.10;;;;;;;3.98;68.25;99486.02;235397;1192;139795;-62
2023/01/21 20:38:34;;;;;;;;;;;;;;;;;;;;;
2023/01/21 20:44:16;;;;;;;42.50;28.70;;;;;;;3.80;68.59;99490.55;235692;1195;138874;-62
2023/01/21 20:50:00;;;;;;;44.90;28.30;;;;;;;3.79;68.74;99509.02;235860;1192;139034;-64
2023/01/21 20:55:54;;;;;;;44.50;30.00;;;;;;;3.76;68.92;99499.77;235704;1193;139528;-64
2023/01/21 21:01:55;;;;;;;45.20;28.90;;;;;;;3.81;68.74;99511.95;235504;1193;139413;-65
2023/01/21 21:07:32;;;;;;;;;;;;;;;;;;;;;
2023/01/21 21:13:01;;;;;;;56.00;34.30;;;;;;;3.83;68.81;99521.54;235667;1193;138796;-67
2023/01/21 21:18:41;;;;;;;;;;;;;;;;;;;;;
2023/01/21 21:25:07;;;;;;;57.70;37.60;;;;;;;3.73;69.05;99518.47;235508;1192;138747;-64
2023/01/21 22:04:01;;;;;;;;;;;;;;;;;;;;;
2023/01/21 22:10:19;;;;;;;;;;;;;;;;;;;;;
2023/01/21 22:16:30;;;;;;;64.30;36.10;;;;;;;3.65;69.13;99566.77;234504;1197;139186;-66
2023/01/21 22:23:06;;;;;;;;;;;;;;;;;;;;;
2023/01/21 22:28:57;;;;;;;;;;;;;;;;;;;;;
2023/01/21 22:34:44;;;;;;;;;;;;;;;;;;;;;
2023/01/21 22:40:33;;;;;;;;;;;;;;;;;;;;;
2023/01/21 22:46:42;;;;;;;47.20;28.00;;;;;;;3.54;68.91;99588.62;234544;1199;139324;-65
2023/01/21 22:52:52;;;;;;;;;;;;;;;;;;;;;
2023/01/21 22:59:41;;;;;;;40.70;25.10;;;;;;;3.49;68.87;99591.90;234406;1199;138406;-63
2023/01/21 23:05:58;;;;;;;;;;;;;;;;;;;;;
2023/01/21 23:11:51;;;;;;;;;;;;;;;;;;;;;
2023/01/21 23:17:17;;;;;;;33.30;20.10;;;;;;;3.47;69.34;99584.73;234618;1198;139188;-64
2023/01/21 23:23:15;;;;;;;36.90;20.90;;;;;;;3.55;68.82;99590.52;234609;1198;139174;-65
2023/01/21 23:29:25;;;;;;;28.70;18.50;;;;;;;3.62;68.82;99592.29;234584;1197;138637;-65
2023/01/21 23:35:51;;;;;;;29.50;18.20;;;;;;;3.63;68.32;99591.90;234652;1198;139328;-64
2023/01/21 23:42:24;;;;;;;;;;;;;;;;;;;;;
2023/01/21 23:48:20;;;;;;;29.60;17.70;;;;;;;3.60;68.30;99607.27;234867;1195;139494;-65
2023/01/21 23:54:45;;;;;;;28.30;17.60;;;;;;;3.57;68.09;99616.44;235046;1197;138992;-64
